Time;durP1;ratioP1;P1;durP2;ratioP2;P2;SDS_P1;SDS_P2;PMS_P1;PMS_P2;Temp;Humidity;BMP_temperature;BMP_pressure;BME280_temperature;BME280_humidity;BME280_pressure;Samples;Min_cycle;Max_cycle;Signal;HPM_P1;HPM_P2
2022/01/11 00:01:08;;;;;;;20.63;15.80;;;;;;;2.41;97.70;102953.88;5031939;28;20119;-49
2022/01/11 00:03:37;;;;;;;20.63;14.50;;;;;;;2.36;98.34;102951.69;5032115;28;20518;-49
2022/01/11 00:06:19;;;;;;;16.13;12.23;;;;;;;2.40;98.65;102961.09;5036172;28;20041;-49
2022/01/11 00:08:48;;;;;;;16.33;12.30;;;;;;;2.44;98.63;102970.53;5036099;28;20377;-50
2022/01/11 00:11:16;;;;;;;18.98;13.65;;;;;;;2.45;98.85;102969.53;5034819;28;20042;-50
2022/01/11 00:13:44;;;;;;;18.58;13.73;;;;;;;2.47;98.97;102964.00;5034564;28;20392;-50
2022/01/11 00:16:15;;;;;;;15.55;11.57;;;;;;;2.50;98.37;102971.72;5036291;28;20053;-49
2022/01/11 00:18:43;;;;;;;17.88;13.07;;;;;;;2.50;98.56;102969.91;5035339;28;20041;-49
2022/01/11 00:21:11;;;;;;;16.20;11.43;;;;;;;2.50;98.23;102975.28;5036114;28;20037;-52
2022/01/11 00:26:06;;;;;;;16.40;10.95;;;;;;;2.50;98.42;102980.66;5036662;28;20045;-50
2022/01/11 00:28:34;;;;;;;14.38;10.88;;;;;;;2.49;98.54;102981.66;5035860;28;20049;-52
2022/01/11 00:31:19;;;;;;;14.95;10.48;;;;;;;2.50;98.04;102987.88;5034223;28;20136;-50
2022/01/11 00:33:47;;;;;;;16.63;12.63;;;;;;;2.48;98.13;102981.84;5034453;28;20037;-49
2022/01/11 00:36:15;;;;;;;17.30;13.25;;;;;;;2.43;97.92;102987.69;5034366;28;20500;-50
2022/01/11 00:38:43;;;;;;;15.13;11.05;;;;;;;2.41;97.99;102995.06;5034547;28;20080;-49
2022/01/11 00:41:12;;;;;;;17.00;12.15;;;;;;;2.41;97.82;102992.38;5034886;28;20045;-49
2022/01/11 00:43:41;;;;;;;14.77;11.27;;;;;;;2.40;97.63;102998.75;5036449;28;20038;-50
2022/01/11 00:46:10;;;;;;;17.05;12.10;;;;;;;2.40;97.47;102988.00;5035380;28;20048;-50
2022/01/11 00:48:40;;;;;;;13.40;9.88;;;;;;;2.40;98.41;102996.06;5034300;28;20076;-51
2022/01/11 00:51:10;;;;;;;15.68;10.57;;;;;;;2.39;97.86;102993.56;5034245;28;20042;-50
2022/01/11 00:53:42;;;;;;;13.95;9.75;;;;;;;2.41;98.11;102992.38;5035592;28;20049;-50
2022/01/11 00:56:10;;;;;;;13.18;10.13;;;;;;;2.40;97.68;102990.69;5033803;28;20074;-49
2022/01/11 00:58:37;;;;;;;16.35;12.48;;;;;;;2.41;97.47;102997.78;5034415;28;20448;-54
2022/01/11 01:01:05;;;;;;;18.33;13.20;;;;;;;2.42;97.44;103004.81;5017619;28;20046;-52
2022/01/11 01:03:34;;;;;;;17.48;13.25;;;;;;;2.43;97.22;103006.53;5017665;28;20109;-53
2022/01/11 01:06:01;;;;;;;16.20;12.57;;;;;;;2.43;97.36;103009.22;5017238;28;20040;-49
2022/01/11 01:08:31;;;;;;;14.30;10.98;;;;;;;2.46;96.84;103005.38;5034070;28;20049;-50
2022/01/11 01:10:58;;;;;;;17.45;11.68;;;;;;;2.44;96.83;102997.44;5034706;28;20069;-49
2022/01/11 01:13:30;;;;;;;14.48;10.60;;;;;;;2.43;96.98;103001.16;5033969;28;20044;-48
2022/01/11 01:16:05;;;;;;;16.58;12.45;;;;;;;2.43;96.82;102994.91;5017351;28;20053;-54
2022/01/11 01:18:56;;;;;;;16.52;12.48;;;;;;;2.42;96.40;102998.59;5012984;28;20046;-54
2022/01/11 01:21:24;;;;;;;13.95;10.88;;;;;;;2.41;96.66;103005.00;4996495;28;20054;-50
2022/01/11 01:23:51;;;;;;;14.30;10.65;;;;;;;2.41;96.69;102992.38;4980745;28;20053;-52
2022/01/11 01:26:19;;;;;;;18.13;11.93;;;;;;;2.43;96.46;102997.59;4996535;28;20048;-51
2022/01/11 01:28:50;;;;;;;17.05;12.25;;;;;;;2.40;96.57;103000.59;4996238;28;20053;-49
2022/01/11 01:31:18;;;;;;;19.15;13.63;;;;;;;2.39;96.44;103009.69;5012402;28;20221;-50
2022/01/11 01:33:48;;;;;;;16.08;11.98;;;;;;;2.40;96.61;103006.00;4997349;28;20204;-49
2022/01/11 01:36:16;;;;;;;15.27;11.57;;;;;;;2.39;96.25;103005.16;4996697;28;20070;-49
2022/01/11 01:38:44;;;;;;;14.52;11.57;;;;;;;2.36;96.06;103000.09;4996339;28;20460;-50
2022/01/11 01:41:17;;;;;;;17.38;13.70;;;;;;;2.33;95.81;103001.25;5012151;28;20460;-52
2022/01/11 01:43:47;;;;;;;15.75;12.43;;;;;;;2.32;96.20;103004.09;4996301;28;20142;-53
2022/01/11 01:46:15;;;;;;;14.88;11.75;;;;;;;2.31;96.48;103010.50;4996288;28;20038;-51
2022/01/11 01:48:44;;;;;;;15.32;11.43;;;;;;;2.31;94.99;103015.88;4984382;28;20058;-49
2022/01/11 01:51:11;;;;;;;14.13;9.60;;;;;;;2.23;94.77;103013.13;4992951;28;20038;-52
2022/01/11 01:53:45;;;;;;;13.85;9.73;;;;;;;2.17;94.91;103001.16;5009071;28;20049;-51
2022/01/11 01:56:13;;;;;;;12.85;9.02;;;;;;;2.19;95.71;103003.66;5013567;28;20050;-49
2022/01/11 01:58:42;;;;;;;16.30;12.30;;;;;;;2.21;95.72;103017.81;5020715;28;21733;-54
2022/01/11 02:01:12;;;;;;;17.60;11.88;;;;;;;2.22;94.96;103014.13;5032786;28;20046;-50
2022/01/11 02:03:42;;;;;;;14.27;10.35;;;;;;;2.16;94.45;103014.75;5033936;28;20080;-49
2022/01/11 02:06:18;;;;;;;15.77;12.32;;;;;;;2.11;94.69;103012.53;5016489;28;20041;-53
2022/01/11 02:08:48;;;;;;;16.35;12.18;;;;;;;2.06;94.65;103020.22;5034113;28;20463;-53
2022/01/11 02:11:17;;;;;;;15.32;10.82;;;;;;;1.99;93.99;103019.16;5032268;28;20069;-54
2022/01/11 02:13:47;;;;;;;17.85;12.63;;;;;;;1.94;94.13;103014.25;5015829;28;20049;-52
2022/01/11 02:16:21;;;;;;;18.50;13.27;;;;;;;1.88;95.13;103018.44;5032673;28;20140;-50
2022/01/11 02:18:51;;;;;;;16.42;12.35;;;;;;;1.90;95.36;103024.50;5032783;28;20080;-51
2022/01/11 02:21:21;;;;;;;16.02;12.00;;;;;;;1.94;95.48;103019.63;5032409;28;20132;-49
2022/01/11 02:23:52;;;;;;;16.55;12.38;;;;;;;2.00;95.60;103010.97;5015733;28;20087;-50
2022/01/11 02:26:23;;;;;;;16.27;12.00;;;;;;;2.03;95.32;103005.25;5032439;28;20511;-52
2022/01/11 02:28:51;;;;;;;15.40;12.00;;;;;;;2.04;95.26;103012.31;5032681;28;20088;-48
2022/01/11 02:31:20;;;;;;;14.68;11.13;;;;;;;2.05;94.83;103021.25;5032396;28;20071;-50
2022/01/11 02:33:58;;;;;;;14.63;10.05;;;;;;;2.08;95.10;103029.81;5030971;28;20042;-49
2022/01/11 02:36:41;;;;;;;16.10;11.52;;;;;;;2.10;94.56;103037.75;5016193;28;20068;-52
2022/01/11 02:39:17;;;;;;;14.85;11.85;;;;;;;2.08;93.44;103035.22;5033467;28;20052;-53
2022/01/11 02:41:53;;;;;;;14.80;10.20;;;;;;;2.04;93.14;103036.50;5016155;28;20038;-55
2022/01/11 02:44:26;;;;;;;14.80;11.02;;;;;;;1.95;94.28;103034.78;5031920;28;20120;-53
2022/01/11 02:46:54;;;;;;;17.48;11.73;;;;;;;1.95;94.46;103034.78;5032057;28;20045;-49
2022/01/11 02:49:25;;;;;;;17.20;12.25;;;;;;;1.98;94.62;103037.16;5032546;28;20439;-53
2022/01/11 02:51:59;;;;;;;15.55;10.88;;;;;;;2.01;94.54;103044.91;5031967;28;20049;-60
2022/01/11 02:54:28;;;;;;;15.43;10.88;;;;;;;2.04;95.03;103043.75;5015280;28;20041;-50
2022/01/11 02:57:07;;;;;;;13.18;8.82;;;;;;;2.07;94.42;103052.34;5031993;28;20052;-48
2022/01/11 02:59:36;;;;;;;14.93;10.95;;;;;;;2.06;94.56;103053.34;5015619;28;20063;-47
2022/01/11 03:02:03;;;;;;;16.70;12.18;;;;;;;2.11;94.64;103056.41;5031396;28;20108;-52
2022/01/11 03:04:33;;;;;;;15.27;10.93;;;;;;;2.09;94.66;103053.03;5031575;28;20045;-53
2022/01/11 03:07:03;;;;;;;15.48;11.27;;;;;;;2.08;94.05;103055.88;5031819;28;20080;-47
2022/01/11 03:09:51;;;;;;;17.25;12.73;;;;;;;2.08;94.19;103051.34;5031678;28;20494;-49
2022/01/11 03:12:21;;;;;;;16.63;12.20;;;;;;;2.05;94.55;103046.28;5031885;28;20041;-53
2022/01/11 03:14:49;;;;;;;18.13;13.25;;;;;;;2.06;94.63;103050.66;5031665;28;20048;-49
2022/01/11 03:17:17;;;;;;;15.63;11.90;;;;;;;2.06;94.38;103053.34;5031631;28;20133;-49
2022/01/11 03:19:45;;;;;;;14.32;10.45;;;;;;;2.08;94.40;103050.50;5031323;28;20041;-51
2022/01/11 03:22:13;;;;;;;18.10;12.68;;;;;;;2.08;93.93;103045.97;5031542;28;20496;-49
2022/01/11 03:24:41;;;;;;;19.50;14.02;;;;;;;2.04;93.90;103047.25;5027254;28;20045;-50
2022/01/11 03:27:09;;;;;;;17.33;12.73;;;;;;;2.04;93.34;103043.75;5011344;28;20540;-46
2022/01/11 03:29:38;;;;;;;20.50;15.02;;;;;;;1.91;93.35;103054.91;5012508;28;20050;-50
2022/01/11 03:32:07;;;;;;;17.00;13.18;;;;;;;1.88;93.17;103050.69;5011772;28;20133;-52
2022/01/11 03:34:55;;;;;;;19.50;14.05;;;;;;;1.82;94.11;103040.53;5029208;28;20050;-54
2022/01/11 03:37:23;;;;;;;16.77;12.68;;;;;;;1.86;93.84;103049.16;5012056;28;20041;-51
2022/01/11 03:39:52;;;;;;;19.52;13.50;;;;;;;1.81;94.39;103043.41;5011566;28;20054;-50
2022/01/11 03:42:20;;;;;;;16.75;12.15;;;;;;;1.81;94.68;103056.84;5011816;28;20128;-51
2022/01/11 03:44:50;;;;;;;19.42;14.90;;;;;;;1.85;94.92;103055.50;5028801;28;20103;-49
2022/01/11 03:47:18;;;;;;;22.95;17.23;;;;;;;1.88;95.14;103060.59;5015376;28;20128;-52
2022/01/11 03:49:46;;;;;;;23.27;16.48;;;;;;;1.93;95.21;103060.97;5026554;28;20407;-49
2022/01/11 03:52:13;;;;;;;22.33;17.20;;;;;;;1.96;94.66;103059.81;5032756;28;20095;-46
2022/01/11 03:55:03;;;;;;;21.67;15.73;;;;;;;1.99;94.20;103065.72;5031375;28;20132;-50
2022/01/11 03:57:41;;;;;;;20.30;16.13;;;;;;;1.96;94.50;103065.19;5028013;28;20572;-53
2022/01/11 04:00:12;;;;;;;21.88;16.33;;;;;;;1.94;94.32;103057.28;5011685;28;20060;-51
2022/01/11 04:02:41;;;;;;;22.90;16.65;;;;;;;1.93;94.01;103063.66;5013053;28;20116;-50
2022/01/11 04:05:13;;;;;;;23.75;16.30;;;;;;;1.93;93.73;103058.28;5021204;28;20492;-50
2022/01/11 04:07:41;;;;;;;20.15;14.80;;;;;;;1.88;94.21;103049.84;5030802;28;20111;-52
2022/01/11 04:10:10;;;;;;;22.13;16.10;;;;;;;1.88;93.64;103049.84;5031055;28;20052;-50
2022/01/11 04:12:39;;;;;;;22.27;16.88;;;;;;;1.81;93.58;103048.78;5031406;28;20116;-55
2022/01/11 04:15:08;;;;;;;23.92;17.92;;;;;;;1.73;94.51;103051.38;5031048;28;20133;-51
2022/01/11 04:17:36;;;;;;;24.33;17.63;;;;;;;1.69;94.19;103057.06;5031729;28;20052;-50
2022/01/11 04:20:04;;;;;;;25.65;19.08;;;;;;;1.68;94.21;103068.81;5033347;28;20045;-46
2022/01/11 04:22:32;;;;;;;25.08;18.27;;;;;;;1.64;94.95;103064.75;5033186;28;20048;-54
2022/01/11 04:25:00;;;;;;;24.67;18.65;;;;;;;1.69;94.87;103067.81;5031375;28;20392;-52
2022/01/11 04:27:29;;;;;;;20.45;15.55;;;;;;;1.78;95.27;103065.19;5030719;28;20045;-47
2022/01/11 04:29:59;;;;;;;24.33;18.33;;;;;;;1.81;95.28;103065.75;5031136;28;20045;-53
2022/01/11 04:32:28;;;;;;;21.98;17.15;;;;;;;1.87;94.80;103072.34;5031056;28;20559;-51
2022/01/11 04:34:56;;;;;;;23.77;18.02;;;;;;;1.85;94.62;103068.94;5030808;28;20409;-51
2022/01/11 04:37:24;;;;;;;21.75;14.77;;;;;;;1.88;94.06;103071.34;5030915;28;20069;-55
2022/01/11 04:39:52;;;;;;;22.00;16.48;;;;;;;1.80;94.18;103073.94;5030616;28;20049;-48
2022/01/11 04:42:52;;;;;;;19.48;15.02;;;;;;;1.80;94.78;103069.41;4971141;28;20129;-53
2022/01/11 04:45:20;;;;;;;19.48;15.55;;;;;;;1.84;94.63;103076.19;4971301;28;20097;-49
2022/01/11 04:47:56;;;;;;;22.63;17.33;;;;;;;1.88;94.67;103074.03;4939490;28;20057;-50
2022/01/11 04:50:26;;;;;;;23.67;17.13;;;;;;;1.90;94.57;103074.72;4954773;28;20402;-50
2022/01/11 04:52:54;;;;;;;21.88;17.33;;;;;;;1.88;94.15;103076.72;4958169;28;20429;-50
2022/01/11 04:55:23;;;;;;;19.90;16.13;;;;;;;1.91;94.34;103076.41;4974708;28;20061;-51
2022/01/11 04:57:51;;;;;;;24.75;18.02;;;;;;;1.87;94.14;103069.66;4958250;28;20050;-49
2022/01/11 05:00:20;;;;;;;23.40;17.85;;;;;;;1.86;94.23;103073.34;4989261;28;20048;-52
2022/01/11 05:02:48;;;;;;;24.58;18.73;;;;;;;1.84;93.91;103064.59;5034027;28;20059;-50
2022/01/11 05:05:16;;;;;;;23.80;17.88;;;;;;;1.77;93.83;103064.34;5035553;28;20041;-50
2022/01/11 05:07:46;;;;;;;24.45;18.88;;;;;;;1.73;94.45;103062.97;5034257;28;20160;-50
2022/01/11 05:10:14;;;;;;;24.25;18.50;;;;;;;1.70;94.08;103069.50;5033897;28;20500;-50
2022/01/11 05:12:42;;;;;;;26.30;19.17;;;;;;;1.70;94.29;103074.88;5034378;28;20050;-51
2022/01/11 05:15:13;;;;;;;24.00;19.17;;;;;;;1.68;94.34;103076.88;5033987;28;20088;-50
2022/01/11 05:17:42;;;;;;;25.27;18.95;;;;;;;1.70;94.59;103079.41;5033618;28;20480;-48
2022/01/11 05:20:11;;;;;;;24.33;18.80;;;;;;;1.73;94.32;103073.72;5033893;28;20041;-51
2022/01/11 05:22:39;;;;;;;26.00;19.92;;;;;;;1.70;93.53;103069.50;5032814;28;20454;-49
2022/01/11 05:25:08;;;;;;;26.65;20.13;;;;;;;1.64;93.85;103069.28;5035387;28;20159;-53
2022/01/11 05:27:35;;;;;;;25.05;19.60;;;;;;;1.63;94.28;103073.78;5033681;28;20488;-50
2022/01/11 05:30:05;;;;;;;25.63;19.48;;;;;;;1.66;94.25;103078.00;5033691;28;20037;-51
2022/01/11 05:32:35;;;;;;;25.48;17.77;;;;;;;1.64;94.16;103064.75;5033571;28;20048;-49
2022/01/11 05:35:08;;;;;;;24.23;17.88;;;;;;;1.65;93.88;103068.28;5034658;28;20491;-50
2022/01/11 05:37:36;;;;;;;25.60;18.20;;;;;;;1.61;93.66;103073.13;5034815;28;20465;-52
2022/01/11 05:40:05;;;;;;;23.20;17.40;;;;;;;1.58;93.98;103076.09;5032762;28;20072;-50
2022/01/11 05:42:33;;;;;;;25.25;18.67;;;;;;;1.60;94.25;103068.72;5034581;28;20112;-50
2022/01/11 05:45:01;;;;;;;24.00;18.42;;;;;;;1.64;94.37;103064.75;5033765;28;20192;-52
2022/01/11 05:47:30;;;;;;;24.13;18.13;;;;;;;1.68;94.31;103070.66;5033693;28;20041;-52
2022/01/11 05:50:00;;;;;;;24.23;17.10;;;;;;;1.71;93.97;103070.38;5032794;28;20515;-48
2022/01/11 05:52:30;;;;;;;29.30;20.38;;;;;;;1.73;93.67;103078.25;5033050;28;20076;-49
2022/01/11 05:54:58;;;;;;;29.08;19.90;;;;;;;1.71;93.92;103078.44;5033169;28;20053;-49
2022/01/11 05:57:26;;;;;;;23.25;18.05;;;;;;;1.69;93.59;103086.63;5033273;28;20049;-50
2022/01/11 05:59:53;;;;;;;24.15;18.80;;;;;;;1.66;93.31;103086.94;5032695;28;20037;-50
2022/01/11 06:02:21;;;;;;;29.10;19.30;;;;;;;1.64;93.57;103091.63;5033171;28;20049;-50
2022/01/11 06:04:49;;;;;;;23.77;17.35;;;;;;;1.63;93.51;103089.91;5033458;28;20042;-49
2022/01/11 06:07:17;;;;;;;23.80;17.55;;;;;;;1.65;93.80;103090.59;5034378;28;20099;-47
2022/01/11 06:09:45;;;;;;;23.63;18.05;;;;;;;1.64;92.97;103090.78;5032826;28;20404;-49
2022/01/11 06:12:13;;;;;;;21.92;15.43;;;;;;;1.56;92.62;103101.44;5033683;28;20050;-49
2022/01/11 06:14:41;;;;;;;26.40;17.25;;;;;;;1.52;93.57;103103.59;5033311;28;20045;-49
2022/01/11 06:17:09;;;;;;;21.15;15.85;;;;;;;1.58;94.02;103108.34;5033186;28;20124;-50
2022/01/11 06:19:37;;;;;;;24.17;17.63;;;;;;;1.60;94.16;103110.88;5031746;28;20488;-47
2022/01/11 06:22:08;;;;;;;21.95;16.50;;;;;;;1.57;93.65;103116.56;5032465;28;20053;-50
2022/01/11 06:24:36;;;;;;;23.40;16.50;;;;;;;1.54;93.98;103119.53;5032637;28;20099;-49
2022/01/11 06:27:04;;;;;;;22.30;16.98;;;;;;;1.50;94.16;103127.06;5032812;28;20053;-51
2022/01/11 06:29:31;;;;;;;23.38;17.00;;;;;;;1.48;94.28;103127.22;5032803;28;20049;-50
2022/01/11 06:31:59;;;;;;;22.80;16.20;;;;;;;1.51;94.27;103136.81;5031848;28;20053;-50
2022/01/11 06:34:27;;;;;;;21.92;16.25;;;;;;;1.55;94.26;103143.56;5032597;28;20045;-51
2022/01/11 06:36:54;;;;;;;24.17;16.50;;;;;;;1.58;93.79;103139.75;5033898;28;20053;-50
2022/01/11 06:39:22;;;;;;;21.98;15.95;;;;;;;1.58;93.89;103139.75;5033799;28;20045;-51
2022/01/11 06:41:49;;;;;;;23.67;16.45;;;;;;;1.57;93.78;103136.22;5032187;28;20396;-51
2022/01/11 06:44:17;;;;;;;21.77;16.40;;;;;;;1.52;93.67;103138.50;5033380;28;20034;-51
2022/01/11 06:46:46;;;;;;;23.38;17.10;;;;;;;1.49;93.69;103144.16;5031960;28;20051;-50
2022/01/11 06:49:17;;;;;;;22.33;17.05;;;;;;;1.39;94.06;103154.97;5032479;28;20045;-53
2022/01/11 06:51:45;;;;;;;24.50;18.15;;;;;;;1.31;94.33;103156.72;5031690;28;20050;-49
2022/01/11 06:54:13;;;;;;;23.25;17.38;;;;;;;1.26;94.88;103152.63;5032032;28;20045;-54
2022/01/11 06:56:43;;;;;;;24.00;16.80;;;;;;;1.24;95.32;103149.25;5016108;28;20045;-48
2022/01/11 06:59:11;;;;;;;22.00;16.27;;;;;;;1.26;94.88;103149.94;5032353;28;20095;-49
2022/01/11 07:01:40;;;;;;;20.80;15.77;;;;;;;1.22;94.97;103150.41;5031670;28;20053;-49
2022/01/11 07:04:18;;;;;;;22.42;15.95;;;;;;;1.14;95.06;103153.81;5031155;28;20034;-49
2022/01/11 07:06:54;;;;;;;20.25;15.60;;;;;;;1.16;95.93;103151.84;5031949;28;20065;-52
2022/01/11 07:09:22;;;;;;;21.85;16.27;;;;;;;1.24;95.83;103154.63;5032111;28;20052;-51
2022/01/11 07:11:50;;;;;;;20.40;16.23;;;;;;;1.31;95.65;103152.19;5031177;28;20468;-53
2022/01/11 07:14:18;;;;;;;21.80;15.45;;;;;;;1.36;95.12;103154.44;5030804;28;20049;-54
2022/01/11 07:16:48;;;;;;;23.02;15.82;;;;;;;1.37;94.61;103165.03;5031297;28;20042;-49
2022/01/11 07:19:17;;;;;;;20.73;15.30;;;;;;;1.33;94.21;103173.53;4321921;28;10000256;-52
2022/01/11 07:21:48;;;;;;;21.90;15.25;;;;;;;1.31;94.24;103173.69;5029701;28;20288;-51
2022/01/11 07:24:18;;;;;;;20.63;15.25;;;;;;;1.32;94.35;103179.88;5030470;28;20507;-55
2022/01/11 07:26:48;;;;;;;20.33;15.38;;;;;;;1.31;94.42;103173.69;5029362;28;20038;-54
2022/01/11 07:29:17;;;;;;;20.73;14.95;;;;;;;1.37;94.32;103174.91;5030341;28;20045;-53
2022/01/11 07:31:46;;;;;;;19.38;14.57;;;;;;;1.42;94.58;103170.81;5029401;28;20124;-54
2022/01/11 07:34:18;;;;;;;20.67;14.52;;;;;;;1.44;93.89;103181.38;5030068;28;20115;-54
2022/01/11 07:36:45;;;;;;;20.45;14.18;;;;;;;1.40;93.77;103186.22;5029553;28;20041;-51
2022/01/11 07:39:13;;;;;;;19.63;14.25;;;;;;;1.40;93.20;103182.69;5028604;28;20037;-52
2022/01/11 07:41:42;;;;;;;19.13;13.18;;;;;;;1.43;93.17;103185.06;5030227;28;20099;-47
2022/01/11 07:44:29;;;;;;;17.63;12.50;;;;;;;1.43;93.31;103191.28;5010654;28;20100;-54
2022/01/11 07:46:58;;;;;;;19.73;13.40;;;;;;;1.39;93.00;103189.03;5014867;28;20053;-53
2022/01/11 07:49:32;;;;;;;18.15;13.38;;;;;;;1.36;93.36;103195.56;5029661;28;20048;-52
2022/01/11 07:52:00;;;;;;;18.13;13.40;;;;;;;1.33;93.03;103206.59;5029727;28;20049;-50
2022/01/11 07:54:27;;;;;;;19.15;13.45;;;;;;;1.31;93.16;103207.75;5013950;28;20053;-48
2022/01/11 07:56:57;;;;;;;20.10;13.27;;;;;;;1.28;93.56;103209.72;5029216;28;20041;-54
2022/01/11 07:59:26;;;;;;;17.65;12.13;;;;;;;1.33;93.35;103205.78;5010063;28;20046;-52
2022/01/11 08:02:14;;;;;;;19.08;13.15;;;;;;;1.28;93.22;103199.00;5010032;28;20073;-55
2022/01/11 08:04:43;;;;;;;17.08;11.82;;;;;;;1.32;93.13;103199.53;5024054;28;20045;-52
2022/01/11 08:07:12;;;;;;;16.63;11.55;;;;;;;1.37;92.73;103197.28;5029464;28;20100;-48
2022/01/11 08:09:45;;;;;;;17.20;12.45;;;;;;;1.36;92.48;103202.78;5029147;28;20042;-54
2022/01/11 08:12:13;;;;;;;15.10;10.90;;;;;;;1.33;92.21;103203.09;5029361;28;20049;-52
2022/01/11 08:14:41;;;;;;;17.15;12.07;;;;;;;1.27;92.04;103201.81;5030293;28;20395;-50
2022/01/11 08:17:11;;;;;;;16.95;12.05;;;;;;;1.24;92.45;103202.97;5029632;28;20104;-53
2022/01/11 08:19:39;;;;;;;16.02;11.38;;;;;;;1.22;92.69;103199.56;5024412;28;20565;-53
2022/01/11 08:22:07;;;;;;;17.38;12.15;;;;;;;1.25;92.45;103201.09;5029419;28;20048;-51
2022/01/11 08:24:44;;;;;;;16.42;12.15;;;;;;;1.28;92.53;103196.31;5028501;28;20046;-53
2022/01/11 08:27:13;;;;;;;15.50;11.40;;;;;;;1.28;92.91;103196.31;5033292;28;20053;-52
2022/01/11 08:29:42;;;;;;;16.73;12.27;;;;;;;1.33;92.82;103200.41;5033075;28;20396;-53
2022/01/11 08:32:12;;;;;;;17.48;12.18;;;;;;;1.37;92.86;103209.81;5032915;28;20056;-50
2022/01/11 08:34:41;;;;;;;17.77;11.48;;;;;;;1.47;92.60;103199.91;5032559;28;20446;-48
2022/01/11 08:37:10;;;;;;;17.33;11.70;;;;;;;1.44;92.42;103197.50;5016701;28;20119;-52
2022/01/11 08:39:37;;;;;;;18.25;11.63;;;;;;;1.47;92.46;103195.38;5032900;28;20053;-57
2022/01/11 08:42:05;;;;;;;19.75;11.52;;;;;;;1.46;92.29;103198.19;5032507;28;20048;-55
2022/01/11 08:44:36;;;;;;;14.38;10.55;;;;;;;1.46;92.39;103198.19;5032553;28;20044;-50
2022/01/11 08:47:06;;;;;;;15.18;10.93;;;;;;;1.50;92.41;103213.03;5033471;28;20064;-50
2022/01/11 08:49:39;;;;;;;14.98;9.45;;;;;;;1.52;92.60;103200.31;5032803;28;20051;-53
2022/01/11 08:52:06;;;;;;;16.90;10.32;;;;;;;1.58;92.54;103209.59;5032485;28;20037;-55
2022/01/11 08:54:36;;;;;;;17.63;11.75;;;;;;;1.58;92.42;103204.22;5032934;28;20068;-48
2022/01/11 08:57:05;;;;;;;18.23;12.18;;;;;;;1.55;92.39;103200.00;5032050;28;20049;-48
2022/01/11 08:59:33;;;;;;;17.60;10.98;;;;;;;1.56;91.62;103204.38;5030800;28;20087;-50
2022/01/11 09:02:05;;;;;;;18.27;11.30;;;;;;;1.51;92.22;103212.03;5031520;28;20050;-53
2022/01/11 09:04:34;;;;;;;18.88;10.73;;;;;;;1.58;92.92;103220.34;5032206;28;20060;-50
2022/01/11 09:07:22;;;;;;;19.40;11.02;;;;;;;1.56;92.49;103225.03;5033062;28;20081;-51
2022/01/11 09:09:53;;;;;;;15.68;10.35;;;;;;;1.61;92.65;103222.72;5031859;28;20047;-50
2022/01/11 09:12:21;;;;;;;14.73;10.50;;;;;;;1.64;92.79;103225.97;5030556;28;20040;-53
2022/01/11 09:14:50;;;;;;;15.93;11.23;;;;;;;1.68;92.73;103224.69;5030731;28;20070;-53
2022/01/11 09:17:19;;;;;;;16.85;11.07;;;;;;;1.72;92.38;103232.44;5031621;28;20049;-50
2022/01/11 09:19:47;;;;;;;15.95;10.77;;;;;;;1.70;92.26;103230.72;5033127;28;20049;-49
2022/01/11 09:22:19;;;;;;;15.63;11.43;;;;;;;1.73;92.58;103223.38;5031631;28;20054;-48
2022/01/11 09:24:48;;;;;;;17.15;10.82;;;;;;;1.68;92.26;103226.50;5031757;28;20451;-48
2022/01/11 09:27:19;;;;;;;15.50;11.13;;;;;;;1.62;92.85;103233.34;5031215;28;20045;-49
2022/01/11 09:29:48;;;;;;;16.15;11.35;;;;;;;1.59;93.22;103233.66;5031451;28;20034;-50
2022/01/11 09:32:18;;;;;;;18.13;12.23;;;;;;;1.60;93.30;103227.25;5031070;28;20045;-52
2022/01/11 09:34:48;;;;;;;14.80;10.43;;;;;;;1.71;93.23;103231.59;5031804;28;20049;-52
2022/01/11 09:37:23;;;;;;;14.15;9.88;;;;;;;1.76;93.21;103239.22;5011326;28;20080;-52
2022/01/11 09:39:52;;;;;;;16.23;11.40;;;;;;;1.79;93.22;103237.06;5022616;28;20042;-51
2022/01/11 09:42:24;;;;;;;15.68;11.32;;;;;;;1.79;93.10;103246.97;5019430;28;20563;-50
2022/01/11 09:44:53;;;;;;;16.15;10.23;;;;;;;1.83;93.21;103251.06;5027796;28;20565;-51
2022/01/11 09:47:21;;;;;;;17.17;11.18;;;;;;;1.87;93.74;103253.28;5031692;28;20041;-49
2022/01/11 09:49:51;;;;;;;14.85;10.63;;;;;;;1.84;93.24;103250.91;5031696;28;20612;-51
2022/01/11 09:52:19;;;;;;;18.65;12.38;;;;;;;1.84;93.37;103250.91;5030880;28;20091;-50
2022/01/11 09:54:48;;;;;;;16.45;10.52;;;;;;;1.87;93.58;103260.50;5031021;28;20049;-50
2022/01/11 09:57:19;;;;;;;16.30;10.95;;;;;;;1.92;94.02;103255.50;5031958;28;20056;-51
2022/01/11 09:59:55;;;;;;;15.63;11.20;;;;;;;1.97;94.25;103257.75;5032502;28;20075;-50
2022/01/11 10:02:44;;;;;;;16.98;11.48;;;;;;;1.97;94.16;103261.28;5033436;28;20496;-53
2022/01/11 10:05:28;;;;;;;18.27;11.30;;;;;;;2.00;93.92;103262.84;5033863;28;20054;-52
2022/01/11 10:08:19;;;;;;;15.65;11.43;;;;;;;2.03;93.76;103254.47;5032678;28;20041;-51
2022/01/11 10:10:48;;;;;;;17.02;10.07;;;;;;;2.16;94.40;103259.47;5033063;28;20111;-48
2022/01/11 10:13:35;;;;;;;19.23;11.70;;;;;;;2.17;93.77;103261.19;5032553;28;20053;-49
2022/01/11 10:16:22;;;;;;;18.20;10.52;;;;;;;2.17;93.84;103247.75;5032250;28;20042;-49
2022/01/11 10:18:53;;;;;;;19.38;9.52;;;;;;;2.21;94.81;103254.50;5032391;28;20052;-49
2022/01/11 10:21:38;;;;;;;16.25;11.02;;;;;;;2.21;93.79;103243.72;5032626;28;20092;-49
2022/01/11 10:24:33;;;;;;;16.30;11.40;;;;;;;2.24;95.41;103244.28;5028807;28;20041;-49
2022/01/11 10:27:13;;;;;;;19.80;11.45;;;;;;;2.34;94.76;103242.34;5015225;28;20504;-51
2022/01/11 10:29:44;;;;;;;17.55;12.18;;;;;;;2.35;93.69;103252.09;5032142;28;20120;-52
2022/01/11 10:32:24;;;;;;;18.90;11.90;;;;;;;2.32;93.70;103249.72;5032384;28;20072;-52
2022/01/11 10:35:02;;;;;;;19.33;12.63;;;;;;;2.33;93.93;103251.44;5011968;28;20150;-49
2022/01/11 10:37:35;;;;;;;17.92;11.57;;;;;;;2.32;94.16;103247.03;5030596;28;20061;-50
2022/01/11 10:40:25;;;;;;;18.40;12.45;;;;;;;2.24;94.49;103241.59;5032620;28;20119;-50
2022/01/11 10:43:04;;;;;;;17.88;12.70;;;;;;;2.23;94.89;103241.75;5033006;28;20041;-50
2022/01/11 10:45:35;;;;;;;19.60;13.50;;;;;;;2.22;94.82;103253.50;5031559;28;20048;-49
2022/01/11 10:48:17;;;;;;;21.35;13.75;;;;;;;2.20;95.19;103250.13;5031314;28;20068;-50
2022/01/11 10:50:51;;;;;;;18.23;12.98;;;;;;;2.21;95.40;103258.00;5032693;28;20512;-49
2022/01/11 10:53:27;;;;;;;20.83;13.43;;;;;;;2.22;95.10;103248.13;5031381;28;20044;-49
2022/01/11 10:56:00;;;;;;;18.63;12.52;;;;;;;2.22;95.31;103253.50;5032328;28;20038;-50
2022/01/11 10:59:06;;;;;;;30.42;17.60;;;;;;;2.25;95.65;103261.25;5031008;28;20056;-55
2022/01/11 11:01:35;;;;;;;44.30;24.00;;;;;;;2.34;95.58;103255.81;5031402;28;20073;-50
2022/01/11 11:04:05;;;;;;;85.60;42.88;;;;;;;2.46;96.80;103242.13;5031482;28;20041;-51
2022/01/11 11:06:33;;;;;;;123.35;54.88;;;;;;;2.50;96.21;103248.88;5015140;28;20124;-51
2022/01/11 11:09:03;;;;;;;26.40;17.77;;;;;;;2.52;95.32;103245.03;5015133;28;20567;-48
2022/01/11 11:11:41;;;;;;;29.38;17.02;;;;;;;2.57;95.16;103247.25;5017065;28;20041;-49
2022/01/11 11:14:08;;;;;;;89.60;44.13;;;;;;;2.66;97.67;103242.81;5032142;28;20054;-49
2022/01/11 11:16:41;;;;;;;40.92;22.92;;;;;;;2.77;98.70;103250.66;5014972;28;20049;-49
2022/01/11 11:19:11;;;;;;;29.88;18.13;;;;;;;2.73;96.98;103252.78;5031335;28;20049;-50
2022/01/11 11:21:51;;;;;;;27.80;15.48;;;;;;;2.73;95.80;103254.63;4329802;28;10000359;-52
2022/01/11 11:24:19;;;;;;;54.33;28.02;;;;;;;2.69;95.46;103253.25;5030407;28;20050;-51
2022/01/11 11:26:49;;;;;;;23.40;13.70;;;;;;;2.68;95.24;103254.25;5031543;28;20531;-51
2022/01/11 11:29:22;;;;;;;57.58;30.80;;;;;;;2.80;98.39;103255.72;5030541;28;20057;-51
2022/01/11 11:32:11;;;;;;;58.67;27.48;;;;;;;2.84;98.32;103250.84;5031227;28;20052;-52
2022/01/11 11:34:40;;;;;;;72.50;35.13;;;;;;;3.03;98.93;103247.97;5010201;28;20056;-49
2022/01/11 11:37:07;;;;;;;36.65;21.70;;;;;;;3.16;100.00;103236.78;5020052;28;20057;-50